LCLKHECA

Guest
Details From LCLK - Larnaca
To HECA - Cairo Intl
Flight Number -
Tags generated
Created
Modified
Stats Distance 327 nm / 606 km
Max Altitude 34,000 ft / 10,363 m
Waypoints 8
Social Downloads 4
Likes 0
Share VATSIM

Download

Looking for another format? Having issues loading an existing format? Contact us
Advertisement - Login to hide

Notes

Basic altitude profile: - Ascent Rate: 2500ft/min - Ascent Speed: 250kts - Cruise Altitude: 35000ft - Cruise Speed: 420kts - Descent Rate: 1500ft/min - Descent Speed: 250kts

Route

LCLK LEDRA UW11 LAKTO J863 PSD HECA

ID Type Via Altitude Latitude Longitude Leg Dist Tot Dist Heading (true) Name
O LCLK APT - 0 ft / 0 m 34.87512˚ 33.62483˚ - 0 nm - Larnaca
LEDRA FIX - 34,000 ft / 10,363 m 33.20000˚ 33.05000˚ 104 nm 104 nm 196° / 196° -
ERIMO FIX UW11 (AWY-HI) 34,000 ft / 10,363 m 33.12396˚ 32.92101˚ 7 nm 112 nm 235° / 235° -
KAROL FIX UW11 (AWY-HI) 34,000 ft / 10,363 m 32.86667˚ 32.48333˚ 26 nm 139 nm 235° / 235° -
LAKTO FIX UW11 (AWY-HI) 34,000 ft / 10,363 m 32.63333˚ 32.08333˚ 24 nm 164 nm 235° / 235° -
SISIM FIX J863 (AWY-HI) 27,500 ft / 8,382 m 32.13444˚ 32.14083˚ 30 nm 194 nm 174° / 174° -
PSD VOR J863 (AWY-HI) 17,500 ft / 5,334 m 31.27881˚ 32.23781˚ 51 nm 245 nm 174° / 175° PORT SAID VOR-DME
O HECA APT - 0 ft / 0 m 30.12181˚ 31.40610˚ 81 nm 327 nm 212° / 212° Cairo Intl

Altitude Profile

Advertisement - Login to hide

Weather


0- 5 10 15 20 25 30 35+ Temperature / ° C

Clouds and Precipitation
Forecast for 2017-12-13 06:00 UTC. Updated 2 hours ago

Ground ~20,000 ft ~40,000 ft Winds

LCLK

Details ICAO LCLK (LCA)
Name Larnaca
Region Cyprus
Timezone Asia/Nicosia (UTC+2.0)
Stats Elevation 8 ft / 2 m (AMSL)
Location 34.875115° 33.624832°
Runways 1
Magnetic Variation 4.990° E

METAR

LCLK 130500Z 32003KT CAVOK 14/11 Q1017 NOSIG

Decode

TAF

TAF LCLK 122330Z 1300/1324 33009KT 9999 FEW030= TAF LCPH 122330Z 1300/1324 02007KT 9999 BECMG 1308/1311 32015KT BECMG 1316/1319 02007KT

Decode

Departure Runways

ID Width Length Bearing (true) Bearing (mag) Surface Threshold Offset Overrun Length
04 148 ft / 45 m 9,771 ft / 2,978 m 45.15° 40.16° Asphalt 0 ft / 0 m 210 ft / 64 m
22 148 ft / 45 m 9,771 ft / 2,978 m 225.17° 220.18° Asphalt 575 ft / 175 m 0 ft / 0 m

HECA

Details ICAO HECA (CAI)
Name Cairo Intl
Region Egypt
Timezone Africa/Cairo (UTC+2.0)
Stats Elevation 382 ft / 116 m (AMSL)
Location 30.121808° 31.406095°
Runways 3
Magnetic Variation 4.403° E

METAR

HECA 130500Z 33004KT 2000 BR BKN025 15/15 Q1021

Decode

TAF

TAF HECA 130106Z 1300/1406 VRB03KT 4000 BR NSC TEMPO 1300/1307 2000 TEMPO 1301/1306 1200 PROB40 TEMPO 1303/1305 0800 FG

Decode

Destination Runways

ID Width Length Bearing (true) Bearing (mag) Surface Threshold Offset Overrun Length
05L 197 ft / 60 m 10,833 ft / 3,302 m 49.29° 44.89° Asphalt 0 ft / 0 m 185 ft / 56 m
05R 197 ft / 60 m 13,126 ft / 4,001 m 49.03° 44.63° Asphalt 0 ft / 0 m 216 ft / 66 m
16 197 ft / 60 m 10,456 ft / 3,187 m 162.61° 158.21° Asphalt 0 ft / 0 m 125 ft / 38 m
23L 197 ft / 60 m 13,126 ft / 4,001 m 229.05° 224.65° Asphalt 0 ft / 0 m 225 ft / 69 m
23R 197 ft / 60 m 10,833 ft / 3,302 m 229.30° 224.90° Asphalt 0 ft / 0 m 185 ft / 56 m
34 197 ft / 60 m 10,456 ft / 3,187 m 342.61° 338.21° Asphalt 0 ft / 0 m 195 ft / 59 m

Approach Navaids

Runway Type Ident Frequency Range Bearing (true) Bearing (mag) Slope Elevation
05L Localiser CRL 110.90 MHz 18 nm / 33 km 49.27° 44.87° - 210 ft / 64 m (AMSL)
05L Glidescope CRL 110.90 MHz 10 nm / 19 km 49.29° 44.89° 3.00° 230 ft / 70 m (AMSL)
05L DME CRL 110.90 MHz 18 nm / 33 km - - - 230 ft / 70 m (AMSL)
05R Localiser IROT 109.90 MHz 18 nm / 33 km 49.04° 44.64° - 410 ft / 125 m (AMSL)
05R Glidescope IROT 109.90 MHz 10 nm / 19 km 49.04° 44.64° 3.00° 430 ft / 131 m (AMSL)
05R DME IROT 109.90 MHz 18 nm / 33 km - - - 430 ft / 131 m (AMSL)
23L Localiser ILOT 109.50 MHz 18 nm / 33 km 229.08° 224.68° - 420 ft / 128 m (AMSL)
23L Glidescope ILOT 109.50 MHz 10 nm / 19 km 229.04° 224.64° 3.00° 420 ft / 128 m (AMSL)
23L DME ILOT 109.50 MHz 18 nm / 33 km - - - 420 ft / 128 m (AMSL)
23R Localiser CRR 110.30 MHz 18 nm / 33 km 229.29° 224.89° - 210 ft / 64 m (AMSL)
23R Glidescope CRR 110.30 MHz 10 nm / 19 km 229.29° 224.89° 3.00° 230 ft / 70 m (AMSL)
23R DME CRR 110.30 MHz 18 nm / 33 km - - - 230 ft / 70 m (AMSL)

Popular Alternatives